createdAt,value
2022-08-28T00:00:36.742Z,21.00
2022-08-28T00:03:05.968Z,20.90
2022-08-28T00:05:36.203Z,21.00
2022-08-28T00:08:04.905Z,20.90
2022-08-28T00:10:33.602Z,20.90
2022-08-28T00:13:01.791Z,20.90
2022-08-28T00:15:32.535Z,20.90
2022-08-28T00:18:01.322Z,20.90
2022-08-28T00:20:31.097Z,20.90
2022-08-28T00:23:01.656Z,20.80
2022-08-28T00:25:31.505Z,20.80
2022-08-28T00:28:05.196Z,20.80
2022-08-28T00:30:39.265Z,20.80
2022-08-28T00:33:10.663Z,20.80
2022-08-28T00:35:40.658Z,20.90
2022-08-28T00:38:12.093Z,20.90
2022-08-28T00:40:42.600Z,20.80
2022-08-28T00:43:22.164Z,20.70
2022-08-28T00:45:50.208Z,20.70
2022-08-28T00:48:18.228Z,20.70
2022-08-28T00:51:03.742Z,20.70
2022-08-28T00:53:33.324Z,20.70
2022-08-28T00:56:06.994Z,20.70
2022-08-28T00:58:42.732Z,20.70
2022-08-28T01:01:11.040Z,20.70
2022-08-28T01:03:39.383Z,20.70
2022-08-28T01:06:08.672Z,20.70
2022-08-28T01:08:41.488Z,20.70
2022-08-28T01:11:10.874Z,20.70
2022-08-28T01:13:40.679Z,20.70
2022-08-28T01:16:09.995Z,20.70
2022-08-28T01:18:39.362Z,20.80
2022-08-28T01:21:20.275Z,20.70
2022-08-28T01:23:56.898Z,20.70
2022-08-28T01:26:25.967Z,20.70
2022-08-28T01:28:53.984Z,20.70
2022-08-28T01:31:22.620Z,20.70
2022-08-28T01:33:50.649Z,20.70
2022-08-28T01:36:20.953Z,20.70
2022-08-28T01:38:54.724Z,20.70
2022-08-28T01:41:22.741Z,20.70
2022-08-28T01:43:50.729Z,20.70
2022-08-28T01:46:18.925Z,20.70
2022-08-28T01:48:47.075Z,20.70
2022-08-28T01:51:15.455Z,20.60
2022-08-28T01:53:45.109Z,20.60
2022-08-28T01:56:16.957Z,20.60
2022-08-28T01:58:45.208Z,20.60
2022-08-28T02:01:15.299Z,20.70
2022-08-28T02:03:44.128Z,20.70
2022-08-28T02:06:13.177Z,20.70
2022-08-28T02:08:41.179Z,20.70
2022-08-28T02:11:10.115Z,20.60
2022-08-28T02:13:40.195Z,20.60
2022-08-28T02:16:10.863Z,20.60
2022-08-28T02:18:39.375Z,20.60
2022-08-28T02:21:08.380Z,20.60
2022-08-28T02:23:38.084Z,20.60
2022-08-28T02:26:06.240Z,20.60
2022-08-28T02:28:34.262Z,20.60
2022-08-28T02:31:03.725Z,20.60
2022-08-28T02:33:31.767Z,20.60
2022-08-28T02:35:59.809Z,20.60
2022-08-28T02:38:27.845Z,20.60
2022-08-28T02:40:59.058Z,20.60
2022-08-28T02:43:27.503Z,20.50
2022-08-28T02:45:55.583Z,20.50
2022-08-28T02:48:25.139Z,20.60
2022-08-28T02:50:59.040Z,20.60
2022-08-28T02:53:27.261Z,20.60
2022-08-28T02:55:55.256Z,20.60
2022-08-28T02:58:23.967Z,20.60
2022-08-28T03:00:51.981Z,20.50
2022-08-28T03:03:20.328Z,20.50
2022-08-28T03:05:49.842Z,20.50
2022-08-28T03:08:17.888Z,20.50
2022-08-28T03:10:45.909Z,20.60
2022-08-28T03:13:26.610Z,20.60
2022-08-28T03:15:56.096Z,20.60
2022-08-28T03:18:25.332Z,20.50
2022-08-28T03:20:55.588Z,20.50
2022-08-28T03:23:30.151Z,20.50
2022-08-28T03:26:00.181Z,20.50
2022-08-28T03:28:30.429Z,20.50
2022-08-28T03:30:58.973Z,20.50
2022-08-28T03:33:28.155Z,20.50
2022-08-28T03:35:57.873Z,20.50
2022-08-28T03:38:26.092Z,20.50
2022-08-28T03:40:54.554Z,20.40
2022-08-28T03:43:24.896Z,20.40
2022-08-28T03:45:55.090Z,20.40
2022-08-28T03:48:24.477Z,20.40
2022-08-28T03:50:53.341Z,20.40
2022-08-28T03:53:23.914Z,20.50
2022-08-28T03:55:52.320Z,20.40
2022-08-28T03:58:20.722Z,20.50
2022-08-28T04:00:49.906Z,20.50
2022-08-28T04:03:18.402Z,20.50
2022-08-28T04:05:48.164Z,20.50
2022-08-28T04:08:18.303Z,20.50
2022-08-28T04:10:48.681Z,20.50
2022-08-28T04:13:18.706Z,20.60
2022-08-28T04:15:47.426Z,20.60
2022-08-28T04:18:15.841Z,20.60
2022-08-28T04:20:46.500Z,20.70
2022-08-28T04:23:14.615Z,20.70
2022-08-28T04:25:42.637Z,20.60
2022-08-28T04:28:12.127Z,20.60
2022-08-28T04:30:42.111Z,20.60
2022-08-28T04:33:10.555Z,20.70
2022-08-28T04:35:38.608Z,20.70
2022-08-28T04:38:06.685Z,20.80
2022-08-28T04:40:34.908Z,20.70
2022-08-28T04:43:02.948Z,20.70
2022-08-28T04:45:32.382Z,20.60
2022-08-28T04:48:00.610Z,20.70
2022-08-28T04:50:33.508Z,20.70
2022-08-28T04:53:01.577Z,20.70
2022-08-28T04:55:53.685Z,20.80
2022-08-28T04:58:19.317Z,20.80
2022-08-28T05:00:55.258Z,20.90
2022-08-28T05:03:23.999Z,20.80
2022-08-28T05:05:53.519Z,20.80
2022-08-28T05:08:23.922Z,20.90
2022-08-28T05:10:52.253Z,20.90
2022-08-28T05:13:20.681Z,21.00
2022-08-28T05:15:50.828Z,21.00
2022-08-28T05:18:23.913Z,21.00
2022-08-28T05:20:51.962Z,21.00
2022-08-28T05:23:19.913Z,21.00
2022-08-28T05:25:50.567Z,21.10
2022-08-28T05:28:19.108Z,21.10
2022-08-28T05:30:47.633Z,21.20
2022-08-28T05:33:17.020Z,21.20
2022-08-28T05:35:47.258Z,21.30
2022-08-28T05:38:16.975Z,21.40
2022-08-28T05:40:46.682Z,21.40
2022-08-28T05:43:15.924Z,21.50
2022-08-28T05:45:44.841Z,21.80
2022-08-28T05:48:13.240Z,21.80
2022-08-28T05:50:44.505Z,21.80
2022-08-28T05:53:18.154Z,21.80
2022-08-28T05:55:46.616Z,21.80
2022-08-28T05:58:34.691Z,21.90
2022-08-28T06:01:12.380Z,21.80
2022-08-28T06:03:42.523Z,21.80
2022-08-28T06:06:12.676Z,21.90
2022-08-28T06:08:58.607Z,22.00
2022-08-28T06:11:30.543Z,22.10
2022-08-28T06:14:01.499Z,22.10
2022-08-28T06:16:30.505Z,22.20
2022-08-28T06:18:59.203Z,22.40
2022-08-28T06:21:27.188Z,22.50
2022-08-28T06:23:56.646Z,22.70
2022-08-28T06:26:24.810Z,22.90
2022-08-28T06:28:53.652Z,23.10
2022-08-28T06:31:23.496Z,23.30
2022-08-28T06:33:54.081Z,23.50
2022-08-28T06:36:22.841Z,23.60
2022-08-28T06:38:51.373Z,23.60
2022-08-28T06:41:20.751Z,23.60
2022-08-28T06:43:49.262Z,23.70
2022-08-28T06:46:18.081Z,23.70
2022-08-28T06:48:46.125Z,23.80
2022-08-28T06:51:15.057Z,24.00
2022-08-28T06:53:45.109Z,24.10
2022-08-28T06:56:25.623Z,24.00
2022-08-28T06:58:58.998Z,24.10
2022-08-28T07:01:29.570Z,24.20
2022-08-28T07:04:00.467Z,24.00
2022-08-28T07:06:31.956Z,24.10
2022-08-28T07:08:59.937Z,24.20
2022-08-28T07:11:30.108Z,24.40
2022-08-28T07:14:00.777Z,24.60
2022-08-28T07:16:31.224Z,24.80
2022-08-28T07:19:00.121Z,24.80
2022-08-28T07:21:28.220Z,25.00
2022-08-28T07:23:56.360Z,25.10
2022-08-28T07:26:27.870Z,25.30
2022-08-28T07:29:09.346Z,25.20
2022-08-28T07:31:41.348Z,25.30
2022-08-28T07:34:10.567Z,25.40
2022-08-28T07:36:39.604Z,25.60
2022-08-28T07:39:08.418Z,25.70
2022-08-28T07:41:39.324Z,25.70
2022-08-28T07:44:25.652Z,25.80
2022-08-28T07:46:57.074Z,25.90
2022-08-28T07:49:25.836Z,26.10
2022-08-28T07:51:54.584Z,26.10
2022-08-28T07:54:23.152Z,26.20
2022-08-28T07:56:51.518Z,26.20
2022-08-28T07:59:20.322Z,26.20
2022-08-28T08:01:51.438Z,26.00
2022-08-28T08:04:23.414Z,26.00
2022-08-28T08:06:57.576Z,26.00
2022-08-28T08:09:27.355Z,25.90
2022-08-28T08:11:57.499Z,25.80
2022-08-28T08:14:26.121Z,25.80
2022-08-28T08:16:54.174Z,25.70
2022-08-28T08:19:23.619Z,25.80
2022-08-28T08:21:54.989Z,25.70
2022-08-28T08:24:26.389Z,25.70
2022-08-28T08:27:00.256Z,25.80
2022-08-28T08:29:31.407Z,25.70
2022-08-28T08:32:05.105Z,25.70
2022-08-28T08:34:38.574Z,25.80
2022-08-28T08:37:07.003Z,25.90
2022-08-28T08:39:35.951Z,26.00
2022-08-28T08:42:07.332Z,26.00
2022-08-28T08:44:40.375Z,26.00
2022-08-28T08:47:14.741Z,25.80
2022-08-28T08:49:51.324Z,26.10
2022-08-28T08:52:37.818Z,26.30
2022-08-28T08:55:25.971Z,26.60
2022-08-28T08:58:00.477Z,26.90
2022-08-28T09:00:29.830Z,26.90
2022-08-28T09:03:04.167Z,27.00
2022-08-28T09:05:46.746Z,27.30
2022-08-28T09:08:25.128Z,27.60
2022-08-28T09:11:00.079Z,27.80
2022-08-28T09:13:35.068Z,27.90
2022-08-28T09:16:06.405Z,27.80
2022-08-28T09:18:35.656Z,27.80
2022-08-28T09:21:07.891Z,27.70
2022-08-28T09:23:36.035Z,27.70
2022-08-28T09:26:09.252Z,27.90
2022-08-28T09:28:44.645Z,28.50
2022-08-28T09:31:19.531Z,28.80
2022-08-28T09:33:51.287Z,29.00
2022-08-28T09:36:32.654Z,30.10
2022-08-28T09:39:07.425Z,31.60
2022-08-28T09:42:04.637Z,32.30
2022-08-28T09:44:32.811Z,32.70
2022-08-28T09:47:00.964Z,33.70
2022-08-28T09:49:30.976Z,33.20
2022-08-28T09:52:19.752Z,33.00
2022-08-28T09:54:51.272Z,32.30
2022-08-28T09:57:19.302Z,32.40
2022-08-28T09:59:47.305Z,33.60
2022-08-28T10:02:25.837Z,34.30
2022-08-28T10:05:02.561Z,34.90
2022-08-28T10:07:40.103Z,34.70
2022-08-28T10:10:18.816Z,34.30
2022-08-28T10:13:01.785Z,33.60
2022-08-28T10:15:43.062Z,35.10
2022-08-28T10:18:27.863Z,36.30
2022-08-28T10:21:05.041Z,35.50
2022-08-28T10:23:46.035Z,33.60
2022-08-28T10:26:27.523Z,32.90
2022-08-28T10:29:07.911Z,32.50
2022-08-28T10:31:44.002Z,32.30
2022-08-28T10:34:33.153Z,31.70
2022-08-28T10:37:10.116Z,31.40
2022-08-28T10:39:50.418Z,31.20
2022-08-28T10:42:30.223Z,30.30
2022-08-28T10:45:08.759Z,29.60
2022-08-28T10:47:41.895Z,29.40
2022-08-28T10:50:16.552Z,29.20
2022-08-28T10:52:49.979Z,28.90
2022-08-28T10:55:25.154Z,28.80
2022-08-28T10:57:58.977Z,28.80
2022-08-28T11:00:28.870Z,29.00
2022-08-28T11:03:00.322Z,29.30
2022-08-28T11:05:31.729Z,29.30
2022-08-28T11:08:04.131Z,29.50
2022-08-28T11:10:48.412Z,29.70
2022-08-28T11:13:41.507Z,29.90
2022-08-28T11:16:18.071Z,29.80
2022-08-28T11:19:27.459Z,29.80
2022-08-28T11:22:01.403Z,29.20
2022-08-28T11:24:43.750Z,29.00
2022-08-28T11:27:22.478Z,28.70
2022-08-28T11:30:35.574Z,28.70
2022-08-28T11:33:07.804Z,28.80
2022-08-28T11:35:52.783Z,29.20
2022-08-28T11:39:02.830Z,29.30
2022-08-28T11:41:32.824Z,29.10
2022-08-28T11:44:28.369Z,28.90
2022-08-28T11:47:16.816Z,28.80
2022-08-28T11:49:46.426Z,28.80
2022-08-28T11:52:36.488Z,28.80
2022-08-28T11:55:20.002Z,28.90
2022-08-28T12:00:48.798Z,29.10
2022-08-28T12:03:25.141Z,29.00
2022-08-28T12:05:56.340Z,29.00
2022-08-28T12:08:57.770Z,28.90
2022-08-28T12:11:57.838Z,29.00
2022-08-28T12:15:07.823Z,29.00
2022-08-28T12:17:49.653Z,29.10
2022-08-28T12:20:26.453Z,29.10
2022-08-28T12:22:58.319Z,29.10
2022-08-28T12:25:32.094Z,28.90
2022-08-28T12:28:04.988Z,28.80
2022-08-28T12:30:37.227Z,28.60
2022-08-28T12:33:19.890Z,28.50
2022-08-28T12:35:47.897Z,28.40
2022-08-28T12:38:21.385Z,28.30
2022-08-28T12:40:52.970Z,28.20
2022-08-28T12:43:40.891Z,28.00
2022-08-28T12:46:19.351Z,27.80
2022-08-28T12:48:51.834Z,27.60
2022-08-28T12:51:23.162Z,27.30
2022-08-28T12:53:54.360Z,27.20
2022-08-28T12:56:24.906Z,27.00
2022-08-28T12:58:53.146Z,26.70
2022-08-28T13:01:29.034Z,26.60
2022-08-28T13:04:02.406Z,26.60
2022-08-28T13:06:32.034Z,26.50
2022-08-28T13:09:03.355Z,26.50
2022-08-28T13:11:35.811Z,26.40
2022-08-28T13:14:05.212Z,26.30
2022-08-28T13:16:40.476Z,25.90
2022-08-28T13:19:22.508Z,25.60
2022-08-28T13:21:58.833Z,25.30
2022-08-28T13:24:45.918Z,24.80
2022-08-28T13:27:25.263Z,24.40
2022-08-28T13:30:02.641Z,24.10
2022-08-28T13:32:32.717Z,23.80
2022-08-28T13:35:13.579Z,23.00
2022-08-28T13:37:44.949Z,22.30
2022-08-28T13:40:36.884Z,21.80
2022-08-28T13:43:07.477Z,21.40
2022-08-28T13:45:43.128Z,21.20
2022-08-28T13:48:15.252Z,21.10
2022-08-28T13:50:48.307Z,21.00
2022-08-28T13:53:18.282Z,21.10
2022-08-28T13:55:47.221Z,21.10
2022-08-28T13:58:15.842Z,21.20
2022-08-28T14:00:47.077Z,21.20
2022-08-28T14:03:32.900Z,21.20
2022-08-28T14:06:02.593Z,21.20
2022-08-28T14:08:30.723Z,21.20
2022-08-28T14:10:58.764Z,21.20
2022-08-28T14:13:27.885Z,21.20
2022-08-28T14:15:56.499Z,21.20
2022-08-28T14:18:24.865Z,21.30
2022-08-28T14:20:53.017Z,21.30
2022-08-28T14:23:23.048Z,21.40
2022-08-28T14:25:51.053Z,21.40
2022-08-28T14:28:19.165Z,21.40
2022-08-28T14:30:49.169Z,21.40
2022-08-28T14:33:20.809Z,21.40
2022-08-28T14:35:49.932Z,21.50
2022-08-28T14:38:18.184Z,21.50
2022-08-28T14:40:47.512Z,21.50
2022-08-28T14:43:15.868Z,21.60
2022-08-28T14:45:45.949Z,21.50
2022-08-28T14:48:15.665Z,21.60
2022-08-28T14:50:46.095Z,21.50
2022-08-28T14:53:15.807Z,21.60
2022-08-28T14:55:45.777Z,21.60
2022-08-28T14:58:15.636Z,21.70
2022-08-28T15:00:46.140Z,21.80
2022-08-28T15:03:14.937Z,21.90
2022-08-28T15:05:43.586Z,21.80
2022-08-28T15:08:14.106Z,21.80
2022-08-28T15:10:43.243Z,21.90
2022-08-28T15:13:12.734Z,21.80
2022-08-28T15:15:42.629Z,21.90
2022-08-28T15:18:11.956Z,21.80
2022-08-28T15:20:40.882Z,21.80
2022-08-28T15:23:10.171Z,21.80
2022-08-28T15:25:38.513Z,21.70
2022-08-28T15:28:07.549Z,21.50
2022-08-28T15:30:36.780Z,21.40
2022-08-28T15:33:06.727Z,21.20
2022-08-28T15:35:37.093Z,21.10
2022-08-28T15:38:05.421Z,21.00
2022-08-28T15:40:51.744Z,21.00
2022-08-28T15:43:19.825Z,20.60
2022-08-28T15:45:47.930Z,20.30
2022-08-28T15:48:17.334Z,20.20
2022-08-28T15:50:45.387Z,20.10
2022-08-28T15:53:13.455Z,20.00
2022-08-28T15:55:41.642Z,19.90
2022-08-28T15:58:14.367Z,20.00
2022-08-28T16:00:43.164Z,20.00
2022-08-28T16:03:11.289Z,20.00
2022-08-28T16:05:41.142Z,20.00
2022-08-28T16:08:10.712Z,19.90
2022-08-28T16:10:38.760Z,19.90
2022-08-28T16:13:06.962Z,19.90
2022-08-28T16:15:35.149Z,19.90
2022-08-28T16:18:05.402Z,20.00
2022-08-28T16:20:34.483Z,20.10
2022-08-28T16:23:04.003Z,20.20
2022-08-28T16:25:32.277Z,20.30
2022-08-28T16:28:02.329Z,20.40
2022-08-28T16:30:30.395Z,20.30
2022-08-28T16:32:58.999Z,20.30
2022-08-28T16:35:26.995Z,20.30
2022-08-28T16:37:55.010Z,20.40
2022-08-28T16:40:24.852Z,20.30
2022-08-28T16:42:55.473Z,20.30
2022-08-28T16:45:23.800Z,20.30
2022-08-28T16:47:54.238Z,20.30
2022-08-28T16:50:22.701Z,20.20
2022-08-28T16:52:50.739Z,20.30
2022-08-28T16:55:18.869Z,20.20
2022-08-28T16:57:49.304Z,20.20
2022-08-28T17:00:17.583Z,20.20
2022-08-28T17:02:46.550Z,20.20
2022-08-28T17:05:15.892Z,20.10
2022-08-28T17:07:44.265Z,20.20
2022-08-28T17:10:15.279Z,20.20
2022-08-28T17:12:45.362Z,20.30
2022-08-28T17:15:15.298Z,20.30
2022-08-28T17:17:43.805Z,20.30
2022-08-28T17:20:34.536Z,20.30
2022-08-28T17:23:01.811Z,20.20
2022-08-28T17:25:31.530Z,20.30
2022-08-28T17:28:00.522Z,20.30
2022-08-28T17:30:30.416Z,20.30
2022-08-28T17:32:58.467Z,20.30
2022-08-28T17:35:26.586Z,20.30
2022-08-28T17:37:55.631Z,20.30
2022-08-28T17:40:23.792Z,20.30
2022-08-28T17:42:53.768Z,20.40
2022-08-28T17:45:21.778Z,20.40
2022-08-28T17:47:52.672Z,20.40
2022-08-28T17:50:21.129Z,20.40
2022-08-28T17:52:49.455Z,20.30
2022-08-28T17:55:19.797Z,20.40
2022-08-28T17:57:47.813Z,20.40
2022-08-28T18:00:17.072Z,20.40
2022-08-28T18:02:46.280Z,20.40
2022-08-28T18:05:15.782Z,20.40
2022-08-28T18:07:43.781Z,20.40
2022-08-28T18:10:12.495Z,20.50
2022-08-28T18:12:40.794Z,20.50
2022-08-28T18:15:12.204Z,20.50
2022-08-28T18:17:42.200Z,20.50
2022-08-28T18:20:12.486Z,20.40
2022-08-28T18:22:41.851Z,20.40
2022-08-28T18:25:31.287Z,20.40
2022-08-28T18:27:59.300Z,20.40
2022-08-28T18:30:28.119Z,20.40
2022-08-28T18:32:57.312Z,20.40
2022-08-28T18:35:31.691Z,20.40
2022-08-28T18:38:01.843Z,20.50
2022-08-28T18:40:30.464Z,20.40
2022-08-28T18:42:58.511Z,20.40
2022-08-28T18:45:27.184Z,20.40
2022-08-28T18:47:55.371Z,20.40
2022-08-28T18:50:23.559Z,20.40
2022-08-28T18:52:53.906Z,20.50
2022-08-28T18:55:25.842Z,20.50
2022-08-28T18:57:54.052Z,20.50
2022-08-28T19:00:26.779Z,20.50
2022-08-28T19:02:55.395Z,20.50
2022-08-28T19:05:23.994Z,20.50
2022-08-28T19:07:52.784Z,20.50
2022-08-28T19:10:33.401Z,20.40
2022-08-28T19:13:04.195Z,20.50
2022-08-28T19:15:33.489Z,20.40
2022-08-28T19:18:02.112Z,20.30
2022-08-28T19:20:31.066Z,20.30
2022-08-28T19:22:59.692Z,20.30
2022-08-28T19:25:31.438Z,20.30
2022-08-28T19:27:59.745Z,20.20
2022-08-28T19:30:33.017Z,20.20
2022-08-28T19:33:02.871Z,20.20
2022-08-28T19:35:30.953Z,20.20
2022-08-28T19:37:58.942Z,20.20
2022-08-28T19:40:27.458Z,20.20
2022-08-28T19:42:55.674Z,20.20
2022-08-28T19:45:23.947Z,20.20
2022-08-28T19:47:53.706Z,20.20
2022-08-28T19:50:21.811Z,20.10
2022-08-28T19:52:50.940Z,20.10
2022-08-28T19:55:21.112Z,20.20
2022-08-28T19:57:49.374Z,20.20
2022-08-28T20:00:19.405Z,20.00
2022-08-28T20:02:50.795Z,20.00
2022-08-28T20:05:21.190Z,20.00
2022-08-28T20:07:52.160Z,20.00
2022-08-28T20:10:21.395Z,20.00
2022-08-28T20:12:49.602Z,20.00
2022-08-28T20:15:18.832Z,20.00
2022-08-28T20:17:49.641Z,19.90
2022-08-28T20:20:20.589Z,19.90
2022-08-28T20:22:48.982Z,19.90
2022-08-28T20:25:22.298Z,19.80
2022-08-28T20:27:53.096Z,19.90
2022-08-28T20:30:21.220Z,19.90
2022-08-28T20:32:49.236Z,19.90
2022-08-28T20:35:17.499Z,19.80
2022-08-28T20:37:51.445Z,19.80
2022-08-28T20:40:21.802Z,19.90
2022-08-28T20:42:49.879Z,19.90
2022-08-28T20:45:19.679Z,19.80
2022-08-28T20:47:50.184Z,19.80
2022-08-28T20:50:18.441Z,19.80
2022-08-28T20:52:46.487Z,19.70
2022-08-28T20:55:15.919Z,19.70
2022-08-28T20:57:43.933Z,19.70
2022-08-28T21:00:13.937Z,19.60
2022-08-28T21:02:41.972Z,19.60
2022-08-28T21:05:10.776Z,19.60
2022-08-28T21:07:38.866Z,19.60
2022-08-28T21:10:08.175Z,19.70
2022-08-28T21:12:39.114Z,19.60
2022-08-28T21:15:09.763Z,19.60
2022-08-28T21:17:38.004Z,19.60
2022-08-28T21:20:10.307Z,19.50
2022-08-28T21:22:39.260Z,19.50
2022-08-28T21:25:10.461Z,19.60
2022-08-28T21:27:40.509Z,19.50
2022-08-28T21:30:10.173Z,19.50
2022-08-28T21:32:38.440Z,19.60
2022-08-28T21:35:09.430Z,19.60
2022-08-28T21:37:39.606Z,19.50
2022-08-28T21:40:10.104Z,19.50
2022-08-28T21:42:39.596Z,19.50
2022-08-28T21:45:11.840Z,19.50
2022-08-28T21:47:41.113Z,19.50
2022-08-28T21:50:10.707Z,19.40
2022-08-28T21:52:39.067Z,19.50
2022-08-28T21:55:09.934Z,19.40
2022-08-28T21:57:39.623Z,19.40
2022-08-28T22:00:09.995Z,19.50
2022-08-28T22:02:38.096Z,19.50
2022-08-28T22:05:06.568Z,19.50
2022-08-28T22:07:34.674Z,19.50
2022-08-28T22:10:02.702Z,19.40
2022-08-28T22:12:31.064Z,19.40
2022-08-28T22:15:02.614Z,19.40
2022-08-28T22:17:30.669Z,19.40
2022-08-28T22:19:58.667Z,19.40
2022-08-28T22:22:44.230Z,19.40
2022-08-28T22:25:12.282Z,19.40
2022-08-28T22:27:40.313Z,19.30
2022-08-28T22:30:10.941Z,19.30
2022-08-28T22:32:39.202Z,19.40
2022-08-28T22:35:08.840Z,19.40
2022-08-28T22:37:37.768Z,19.30
2022-08-28T22:40:09.539Z,19.30
2022-08-28T22:42:41.890Z,19.30
2022-08-28T22:45:11.748Z,19.30
2022-08-28T22:47:40.552Z,19.30
2022-08-28T22:50:09.382Z,19.30
2022-08-28T22:52:37.445Z,19.30
2022-08-28T22:55:08.784Z,19.30
2022-08-28T22:57:36.979Z,19.30
2022-08-28T23:00:07.506Z,19.20
2022-08-28T23:02:37.030Z,19.30
2022-08-28T23:05:05.872Z,19.20
2022-08-28T23:07:33.877Z,19.20
2022-08-28T23:10:02.014Z,19.20
2022-08-28T23:12:30.103Z,19.20
2022-08-28T23:14:58.100Z,19.20
2022-08-28T23:17:26.150Z,19.10
2022-08-28T23:19:55.615Z,19.20
2022-08-28T23:22:23.626Z,19.20
2022-08-28T23:24:52.411Z,19.20
2022-08-28T23:27:35.954Z,19.20
2022-08-28T23:30:07.207Z,19.20
2022-08-28T23:32:35.325Z,19.10
2022-08-28T23:35:07.263Z,19.20
2022-08-28T23:37:36.456Z,19.20
2022-08-28T23:40:05.900Z,19.20
2022-08-28T23:42:33.967Z,19.20
2022-08-28T23:45:01.949Z,19.20
2022-08-28T23:47:33.179Z,19.20
2022-08-28T23:50:01.228Z,19.20
2022-08-28T23:52:30.637Z,19.30
2022-08-28T23:54:59.984Z,19.30
2022-08-28T23:57:28.808Z,19.30
2022-08-28T23:59:57.191Z,19.30
